Terminal Aerodrome Forecast
Issued by NWS

Home | Current Version | Previous Version | Text Only | Print | Product List | Glossary On
Versions: 1 2 3 4 5 6 7 8 9 10 11 12
000
FTUS42 KFFC 211729
TAFFTY
TAF
KFTY 211729Z 2118/2218 15003KT P6SM FEW060 SCT250
     FM212200 15004KT P6SM FEW250
     FM221400 13006KT P6SM BKN015=

USA.gov is the U.S. government's official web portal to all federal, state and local government web resources and services.